Terminal Aerodrome Forecast
Issued by NWS Tulsa, OK

Home | Current Version | Previous Version | Text Only | Print | Product List | Glossary On
Versions: 1 2 3 4 5 6 7 8 9 10 11 12 13 14 15 16
000
FTUS44 KTSA 011300 AAA
TAFTUL
TAF AMD
KTUL 011314Z 0113/0212 26015G22KT P6SM OVC015
     FM011700 32020G28KT P6SM OVC030
     FM012100 32022G30KT P6SM BKN040
     FM020100 32024G31KT P6SM SCT045
     FM020900 33013KT P6SM SKC=

USA.gov is the U.S. government's official web portal to all federal, state and local government web resources and services.